sensor_id;sensor_type;location;lat;lon;timestamp;P1;durP1;ratioP1;P2;durP2;ratioP2
22476;SDS011;65006;51.698;-0.292;2023-09-12T00:02:07;4.22;;;1.40;;
22476;SDS011;65006;51.698;-0.292;2023-09-12T00:04:34;2.80;;;1.30;;
22476;SDS011;65006;51.698;-0.292;2023-09-12T00:07:00;2.75;;;1.27;;
22476;SDS011;65006;51.698;-0.292;2023-09-12T00:11:53;1.95;;;1.20;;
22476;SDS011;65006;51.698;-0.292;2023-09-12T00:14:19;4.00;;;1.13;;
22476;SDS011;65006;51.698;-0.292;2023-09-12T00:16:46;6.18;;;1.00;;
22476;SDS011;65006;51.698;-0.292;2023-09-12T00:19:12;4.40;;;1.42;;
22476;SDS011;65006;51.698;-0.292;2023-09-12T00:21:38;4.97;;;1.48;;
22476;SDS011;65006;51.698;-0.292;2023-09-12T00:24:04;2.45;;;1.42;;
22476;SDS011;65006;51.698;-0.292;2023-09-12T00:26:30;2.03;;;1.20;;
22476;SDS011;65006;51.698;-0.292;2023-09-12T00:28:56;1.65;;;0.98;;
22476;SDS011;65006;51.698;-0.292;2023-09-12T00:31:22;4.55;;;1.58;;
22476;SDS011;65006;51.698;-0.292;2023-09-12T00:33:48;3.08;;;1.30;;
22476;SDS011;65006;51.698;-0.292;2023-09-12T00:36:14;3.85;;;1.95;;
22476;SDS011;65006;51.698;-0.292;2023-09-12T00:38:40;6.47;;;1.45;;
22476;SDS011;65006;51.698;-0.292;2023-09-12T00:41:06;2.95;;;1.40;;
22476;SDS011;65006;51.698;-0.292;2023-09-12T00:43:32;1.70;;;1.30;;
22476;SDS011;65006;51.698;-0.292;2023-09-12T00:45:58;2.20;;;1.20;;
22476;SDS011;65006;51.698;-0.292;2023-09-12T00:48:24;3.97;;;1.10;;
22476;SDS011;65006;51.698;-0.292;2023-09-12T00:50:50;4.90;;;1.50;;
22476;SDS011;65006;51.698;-0.292;2023-09-12T00:55:45;3.08;;;1.48;;
22476;SDS011;65006;51.698;-0.292;2023-09-12T00:58:12;3.33;;;1.42;;
22476;SDS011;65006;51.698;-0.292;2023-09-12T01:00:40;3.40;;;1.30;;
22476;SDS011;65006;51.698;-0.292;2023-09-12T01:03:06;4.47;;;1.45;;
22476;SDS011;65006;51.698;-0.292;2023-09-12T01:05:32;3.08;;;1.83;;
22476;SDS011;65006;51.698;-0.292;2023-09-12T01:07:59;2.40;;;1.42;;
22476;SDS011;65006;51.698;-0.292;2023-09-12T01:10:25;5.30;;;1.80;;
22476;SDS011;65006;51.698;-0.292;2023-09-12T01:12:51;3.20;;;1.52;;
22476;SDS011;65006;51.698;-0.292;2023-09-12T01:15:18;4.72;;;1.60;;
22476;SDS011;65006;51.698;-0.292;2023-09-12T01:17:44;5.50;;;1.33;;
22476;SDS011;65006;51.698;-0.292;2023-09-12T01:22:40;2.88;;;1.55;;
22476;SDS011;65006;51.698;-0.292;2023-09-12T01:25:20;2.03;;;1.33;;
22476;SDS011;65006;51.698;-0.292;2023-09-12T01:27:51;2.38;;;1.20;;
22476;SDS011;65006;51.698;-0.292;2023-09-12T01:30:20;4.32;;;1.60;;
22476;SDS011;65006;51.698;-0.292;2023-09-12T01:32:46;4.38;;;0.95;;
22476;SDS011;65006;51.698;-0.292;2023-09-12T01:35:13;3.38;;;1.55;;
22476;SDS011;65006;51.698;-0.292;2023-09-12T01:37:39;3.03;;;1.52;;
22476;SDS011;65006;51.698;-0.292;2023-09-12T01:40:05;4.20;;;1.45;;
22476;SDS011;65006;51.698;-0.292;2023-09-12T01:42:36;6.97;;;1.55;;
22476;SDS011;65006;51.698;-0.292;2023-09-12T01:45:02;4.65;;;1.38;;
22476;SDS011;65006;51.698;-0.292;2023-09-12T01:47:29;2.47;;;1.50;;
22476;SDS011;65006;51.698;-0.292;2023-09-12T01:49:55;4.10;;;1.58;;
22476;SDS011;65006;51.698;-0.292;2023-09-12T01:52:22;2.28;;;1.38;;
22476;SDS011;65006;51.698;-0.292;2023-09-12T01:54:49;2.97;;;1.73;;
22476;SDS011;65006;51.698;-0.292;2023-09-12T01:57:16;2.40;;;1.65;;
22476;SDS011;65006;51.698;-0.292;2023-09-12T01:59:45;2.78;;;1.30;;
22476;SDS011;65006;51.698;-0.292;2023-09-12T02:02:11;6.43;;;1.23;;
22476;SDS011;65006;51.698;-0.292;2023-09-12T02:04:37;3.05;;;1.52;;
22476;SDS011;65006;51.698;-0.292;2023-09-12T02:07:03;4.43;;;1.30;;
22476;SDS011;65006;51.698;-0.292;2023-09-12T02:09:29;5.68;;;1.63;;
22476;SDS011;65006;51.698;-0.292;2023-09-12T02:11:55;3.40;;;1.33;;
22476;SDS011;65006;51.698;-0.292;2023-09-12T02:14:21;3.85;;;1.33;;
22476;SDS011;65006;51.698;-0.292;2023-09-12T02:16:47;3.08;;;1.67;;
22476;SDS011;65006;51.698;-0.292;2023-09-12T02:19:13;4.97;;;1.77;;
22476;SDS011;65006;51.698;-0.292;2023-09-12T02:21:39;2.28;;;1.20;;
22476;SDS011;65006;51.698;-0.292;2023-09-12T02:24:05;3.63;;;1.20;;
22476;SDS011;65006;51.698;-0.292;2023-09-12T02:26:31;4.85;;;1.25;;
22476;SDS011;65006;51.698;-0.292;2023-09-12T02:29:01;2.85;;;1.17;;
22476;SDS011;65006;51.698;-0.292;2023-09-12T02:33:53;3.03;;;1.52;;
22476;SDS011;65006;51.698;-0.292;2023-09-12T02:36:19;2.83;;;1.40;;
22476;SDS011;65006;51.698;-0.292;2023-09-12T02:38:45;3.85;;;1.40;;
22476;SDS011;65006;51.698;-0.292;2023-09-12T02:41:11;4.85;;;1.40;;
22476;SDS011;65006;51.698;-0.292;2023-09-12T02:43:37;3.90;;;1.60;;
22476;SDS011;65006;51.698;-0.292;2023-09-12T02:46:03;2.85;;;1.65;;
22476;SDS011;65006;51.698;-0.292;2023-09-12T02:48:29;5.18;;;1.33;;
22476;SDS011;65006;51.698;-0.292;2023-09-12T02:50:55;2.35;;;1.60;;
22476;SDS011;65006;51.698;-0.292;2023-09-12T02:53:21;3.65;;;1.67;;
22476;SDS011;65006;51.698;-0.292;2023-09-12T02:55:47;3.22;;;1.50;;
22476;SDS011;65006;51.698;-0.292;2023-09-12T02:58:13;4.68;;;1.30;;
22476;SDS011;65006;51.698;-0.292;2023-09-12T03:00:39;1.98;;;1.27;;
22476;SDS011;65006;51.698;-0.292;2023-09-12T03:03:06;2.25;;;1.35;;
22476;SDS011;65006;51.698;-0.292;2023-09-12T03:05:32;2.72;;;1.60;;
22476;SDS011;65006;51.698;-0.292;2023-09-12T03:07:58;3.40;;;1.42;;
22476;SDS011;65006;51.698;-0.292;2023-09-12T03:10:24;3.17;;;1.70;;
22476;SDS011;65006;51.698;-0.292;2023-09-12T03:12:50;2.47;;;1.30;;
22476;SDS011;65006;51.698;-0.292;2023-09-12T03:15:16;1.40;;;1.20;;
22476;SDS011;65006;51.698;-0.292;2023-09-12T03:17:41;4.03;;;1.48;;
22476;SDS011;65006;51.698;-0.292;2023-09-12T03:20:08;3.20;;;1.67;;
22476;SDS011;65006;51.698;-0.292;2023-09-12T03:22:34;4.15;;;1.27;;
22476;SDS011;65006;51.698;-0.292;2023-09-12T03:25:04;2.97;;;1.50;;
22476;SDS011;65006;51.698;-0.292;2023-09-12T03:27:30;3.00;;;2.33;;
22476;SDS011;65006;51.698;-0.292;2023-09-12T03:32:23;2.13;;;1.35;;
22476;SDS011;65006;51.698;-0.292;2023-09-12T03:34:49;3.50;;;1.75;;
22476;SDS011;65006;51.698;-0.292;2023-09-12T03:37:15;5.60;;;1.35;;
22476;SDS011;65006;51.698;-0.292;2023-09-12T03:39:41;2.28;;;1.40;;
22476;SDS011;65006;51.698;-0.292;2023-09-12T03:42:07;7.20;;;1.30;;
22476;SDS011;65006;51.698;-0.292;2023-09-12T03:44:33;1.50;;;1.13;;
22476;SDS011;65006;51.698;-0.292;2023-09-12T03:46:59;3.85;;;1.70;;
22476;SDS011;65006;51.698;-0.292;2023-09-12T03:49:25;3.50;;;1.40;;
22476;SDS011;65006;51.698;-0.292;2023-09-12T03:51:53;3.90;;;1.73;;
22476;SDS011;65006;51.698;-0.292;2023-09-12T03:54:19;5.25;;;1.30;;
22476;SDS011;65006;51.698;-0.292;2023-09-12T03:56:45;3.35;;;1.42;;
22476;SDS011;65006;51.698;-0.292;2023-09-12T03:59:11;2.30;;;1.35;;
22476;SDS011;65006;51.698;-0.292;2023-09-12T04:01:37;2.42;;;1.48;;
22476;SDS011;65006;51.698;-0.292;2023-09-12T04:04:03;2.08;;;1.30;;
22476;SDS011;65006;51.698;-0.292;2023-09-12T04:06:29;4.53;;;2.03;;
22476;SDS011;65006;51.698;-0.292;2023-09-12T04:08:55;2.90;;;1.48;;
22476;SDS011;65006;51.698;-0.292;2023-09-12T04:11:21;3.67;;;1.25;;
22476;SDS011;65006;51.698;-0.292;2023-09-12T04:13:47;2.35;;;1.52;;
22476;SDS011;65006;51.698;-0.292;2023-09-12T04:16:13;1.85;;;1.45;;
22476;SDS011;65006;51.698;-0.292;2023-09-12T04:18:39;1.73;;;1.50;;
22476;SDS011;65006;51.698;-0.292;2023-09-12T04:21:05;2.85;;;1.40;;
22476;SDS011;65006;51.698;-0.292;2023-09-12T04:23:31;2.58;;;1.30;;
22476;SDS011;65006;51.698;-0.292;2023-09-12T04:25:57;3.92;;;1.55;;
22476;SDS011;65006;51.698;-0.292;2023-09-12T04:28:28;5.20;;;1.67;;
22476;SDS011;65006;51.698;-0.292;2023-09-12T04:31:01;4.38;;;1.80;;
22476;SDS011;65006;51.698;-0.292;2023-09-12T04:33:28;2.60;;;1.83;;
22476;SDS011;65006;51.698;-0.292;2023-09-12T04:35:54;2.53;;;1.35;;
22476;SDS011;65006;51.698;-0.292;2023-09-12T04:38:22;7.43;;;2.00;;
22476;SDS011;65006;51.698;-0.292;2023-09-12T04:43:15;2.42;;;1.42;;
22476;SDS011;65006;51.698;-0.292;2023-09-12T04:45:41;2.45;;;1.77;;
22476;SDS011;65006;51.698;-0.292;2023-09-12T04:48:07;2.10;;;1.50;;
22476;SDS011;65006;51.698;-0.292;2023-09-12T04:50:33;2.67;;;1.67;;
22476;SDS011;65006;51.698;-0.292;2023-09-12T04:52:59;5.85;;;2.20;;
22476;SDS011;65006;51.698;-0.292;2023-09-12T04:55:25;2.20;;;1.58;;
22476;SDS011;65006;51.698;-0.292;2023-09-12T04:57:51;6.30;;;1.55;;
22476;SDS011;65006;51.698;-0.292;2023-09-12T05:00:17;4.78;;;2.15;;
22476;SDS011;65006;51.698;-0.292;2023-09-12T05:02:42;3.90;;;1.60;;
22476;SDS011;65006;51.698;-0.292;2023-09-12T05:05:08;3.70;;;1.50;;
22476;SDS011;65006;51.698;-0.292;2023-09-12T05:07:34;2.10;;;1.60;;
22476;SDS011;65006;51.698;-0.292;2023-09-12T05:10:00;6.15;;;1.95;;
22476;SDS011;65006;51.698;-0.292;2023-09-12T05:12:27;3.22;;;1.67;;
22476;SDS011;65006;51.698;-0.292;2023-09-12T05:14:53;3.08;;;1.75;;
22476;SDS011;65006;51.698;-0.292;2023-09-12T05:17:19;3.25;;;1.60;;
22476;SDS011;65006;51.698;-0.292;2023-09-12T05:19:45;4.22;;;1.40;;
22476;SDS011;65006;51.698;-0.292;2023-09-12T05:22:11;3.25;;;2.08;;
22476;SDS011;65006;51.698;-0.292;2023-09-12T05:24:37;3.05;;;1.70;;
22476;SDS011;65006;51.698;-0.292;2023-09-12T05:27:03;1.75;;;1.52;;
22476;SDS011;65006;51.698;-0.292;2023-09-12T05:29:30;3.95;;;1.77;;
22476;SDS011;65006;51.698;-0.292;2023-09-12T05:31:56;3.85;;;1.80;;
22476;SDS011;65006;51.698;-0.292;2023-09-12T05:34:22;3.63;;;2.30;;
22476;SDS011;65006;51.698;-0.292;2023-09-12T05:36:48;4.20;;;1.70;;
22476;SDS011;65006;51.698;-0.292;2023-09-12T05:39:14;5.72;;;1.77;;
22476;SDS011;65006;51.698;-0.292;2023-09-12T05:41:40;4.28;;;1.85;;
22476;SDS011;65006;51.698;-0.292;2023-09-12T05:44:06;4.40;;;1.85;;
22476;SDS011;65006;51.698;-0.292;2023-09-12T05:46:32;2.85;;;1.85;;
22476;SDS011;65006;51.698;-0.292;2023-09-12T05:48:58;3.20;;;2.22;;
22476;SDS011;65006;51.698;-0.292;2023-09-12T05:51:24;10.23;;;1.88;;
22476;SDS011;65006;51.698;-0.292;2023-09-12T05:53:50;3.70;;;1.75;;
22476;SDS011;65006;51.698;-0.292;2023-09-12T05:56:16;4.63;;;1.80;;
22476;SDS011;65006;51.698;-0.292;2023-09-12T05:58:42;7.45;;;1.88;;
22476;SDS011;65006;51.698;-0.292;2023-09-12T06:01:08;4.80;;;2.28;;
22476;SDS011;65006;51.698;-0.292;2023-09-12T06:03:34;5.82;;;2.33;;
22476;SDS011;65006;51.698;-0.292;2023-09-12T06:06:00;4.00;;;2.15;;
22476;SDS011;65006;51.698;-0.292;2023-09-12T06:08:27;4.57;;;1.95;;
22476;SDS011;65006;51.698;-0.292;2023-09-12T06:10:53;2.85;;;2.15;;
22476;SDS011;65006;51.698;-0.292;2023-09-12T06:13:20;5.45;;;2.10;;
22476;SDS011;65006;51.698;-0.292;2023-09-12T06:15:46;3.05;;;1.90;;
22476;SDS011;65006;51.698;-0.292;2023-09-12T06:18:12;4.25;;;2.05;;
22476;SDS011;65006;51.698;-0.292;2023-09-12T06:20:38;5.05;;;2.22;;
22476;SDS011;65006;51.698;-0.292;2023-09-12T06:23:04;3.60;;;2.25;;
22476;SDS011;65006;51.698;-0.292;2023-09-12T06:25:30;4.47;;;2.47;;
22476;SDS011;65006;51.698;-0.292;2023-09-12T06:27:56;5.18;;;2.92;;
22476;SDS011;65006;51.698;-0.292;2023-09-12T06:30:22;6.07;;;2.47;;
22476;SDS011;65006;51.698;-0.292;2023-09-12T06:32:48;4.93;;;2.10;;
22476;SDS011;65006;51.698;-0.292;2023-09-12T06:35:14;9.20;;;2.35;;
22476;SDS011;65006;51.698;-0.292;2023-09-12T06:37:40;11.82;;;2.90;;
22476;SDS011;65006;51.698;-0.292;2023-09-12T06:40:06;5.97;;;2.28;;
22476;SDS011;65006;51.698;-0.292;2023-09-12T06:42:33;6.88;;;2.10;;
22476;SDS011;65006;51.698;-0.292;2023-09-12T06:44:59;9.25;;;1.90;;
22476;SDS011;65006;51.698;-0.292;2023-09-12T06:47:25;7.13;;;2.15;;
22476;SDS011;65006;51.698;-0.292;2023-09-12T06:49:51;3.42;;;1.92;;
22476;SDS011;65006;51.698;-0.292;2023-09-12T06:52:17;3.17;;;2.13;;
22476;SDS011;65006;51.698;-0.292;2023-09-12T06:54:43;7.10;;;2.40;;
22476;SDS011;65006;51.698;-0.292;2023-09-12T06:57:08;5.63;;;2.47;;
22476;SDS011;65006;51.698;-0.292;2023-09-12T06:59:34;3.95;;;2.30;;
22476;SDS011;65006;51.698;-0.292;2023-09-12T07:02:00;6.88;;;2.42;;
22476;SDS011;65006;51.698;-0.292;2023-09-12T07:04:26;4.50;;;1.92;;
22476;SDS011;65006;51.698;-0.292;2023-09-12T07:06:52;5.10;;;2.40;;
22476;SDS011;65006;51.698;-0.292;2023-09-12T07:09:18;4.50;;;2.30;;
22476;SDS011;65006;51.698;-0.292;2023-09-12T07:11:45;5.93;;;2.10;;
22476;SDS011;65006;51.698;-0.292;2023-09-12T07:14:11;6.57;;;2.28;;
22476;SDS011;65006;51.698;-0.292;2023-09-12T07:16:37;3.92;;;2.47;;
22476;SDS011;65006;51.698;-0.292;2023-09-12T07:19:03;5.22;;;1.92;;
22476;SDS011;65006;51.698;-0.292;2023-09-12T07:21:30;5.10;;;1.90;;
22476;SDS011;65006;51.698;-0.292;2023-09-12T07:23:56;5.80;;;2.08;;
22476;SDS011;65006;51.698;-0.292;2023-09-12T07:26:22;4.65;;;2.15;;
22476;SDS011;65006;51.698;-0.292;2023-09-12T07:28:48;4.97;;;2.33;;
22476;SDS011;65006;51.698;-0.292;2023-09-12T07:31:14;5.00;;;2.50;;
22476;SDS011;65006;51.698;-0.292;2023-09-12T07:33:40;5.95;;;2.30;;
22476;SDS011;65006;51.698;-0.292;2023-09-12T07:36:06;5.97;;;2.60;;
22476;SDS011;65006;51.698;-0.292;2023-09-12T07:38:32;3.50;;;2.13;;
22476;SDS011;65006;51.698;-0.292;2023-09-12T07:41:00;7.72;;;2.85;;
22476;SDS011;65006;51.698;-0.292;2023-09-12T07:43:28;8.23;;;2.47;;
22476;SDS011;65006;51.698;-0.292;2023-09-12T07:46:00;7.45;;;2.90;;
22476;SDS011;65006;51.698;-0.292;2023-09-12T07:48:26;6.25;;;2.85;;
22476;SDS011;65006;51.698;-0.292;2023-09-12T07:50:52;7.18;;;3.42;;
22476;SDS011;65006;51.698;-0.292;2023-09-12T07:53:18;3.45;;;2.17;;
22476;SDS011;65006;51.698;-0.292;2023-09-12T07:55:45;6.28;;;2.50;;
22476;SDS011;65006;51.698;-0.292;2023-09-12T07:58:15;6.22;;;2.75;;
22476;SDS011;65006;51.698;-0.292;2023-09-12T08:00:43;5.50;;;2.72;;
22476;SDS011;65006;51.698;-0.292;2023-09-12T08:03:09;4.70;;;2.15;;
22476;SDS011;65006;51.698;-0.292;2023-09-12T08:05:35;3.63;;;2.40;;
22476;SDS011;65006;51.698;-0.292;2023-09-12T08:08:01;4.15;;;2.03;;
22476;SDS011;65006;51.698;-0.292;2023-09-12T08:10:27;3.80;;;2.28;;
22476;SDS011;65006;51.698;-0.292;2023-09-12T08:12:54;6.80;;;2.10;;
22476;SDS011;65006;51.698;-0.292;2023-09-12T08:15:20;3.30;;;1.88;;
22476;SDS011;65006;51.698;-0.292;2023-09-12T08:17:46;4.63;;;2.30;;
22476;SDS011;65006;51.698;-0.292;2023-09-12T08:20:17;6.15;;;2.38;;
22476;SDS011;65006;51.698;-0.292;2023-09-12T08:22:43;6.43;;;2.35;;
22476;SDS011;65006;51.698;-0.292;2023-09-12T08:25:09;5.32;;;2.70;;
22476;SDS011;65006;51.698;-0.292;2023-09-12T08:27:37;5.10;;;2.10;;
22476;SDS011;65006;51.698;-0.292;2023-09-12T08:30:03;4.32;;;2.00;;
22476;SDS011;65006;51.698;-0.292;2023-09-12T08:32:29;5.65;;;1.95;;
22476;SDS011;65006;51.698;-0.292;2023-09-12T08:34:56;3.80;;;2.00;;
22476;SDS011;65006;51.698;-0.292;2023-09-12T08:37:22;4.65;;;2.45;;
22476;SDS011;65006;51.698;-0.292;2023-09-12T08:39:48;3.63;;;1.98;;
22476;SDS011;65006;51.698;-0.292;2023-09-12T08:42:15;6.35;;;2.60;;
22476;SDS011;65006;51.698;-0.292;2023-09-12T08:44:42;4.25;;;1.80;;
22476;SDS011;65006;51.698;-0.292;2023-09-12T08:47:08;2.88;;;1.77;;
22476;SDS011;65006;51.698;-0.292;2023-09-12T08:49:35;5.47;;;1.83;;
22476;SDS011;65006;51.698;-0.292;2023-09-12T08:52:02;5.28;;;1.75;;
22476;SDS011;65006;51.698;-0.292;2023-09-12T08:54:29;3.08;;;1.88;;
22476;SDS011;65006;51.698;-0.292;2023-09-12T08:56:55;4.20;;;1.70;;
22476;SDS011;65006;51.698;-0.292;2023-09-12T08:59:21;4.63;;;1.67;;
22476;SDS011;65006;51.698;-0.292;2023-09-12T09:01:47;7.32;;;2.08;;
22476;SDS011;65006;51.698;-0.292;2023-09-12T09:04:16;4.05;;;2.00;;
22476;SDS011;65006;51.698;-0.292;2023-09-12T09:06:44;3.65;;;1.90;;
22476;SDS011;65006;51.698;-0.292;2023-09-12T09:09:10;2.83;;;2.10;;
22476;SDS011;65006;51.698;-0.292;2023-09-12T09:11:36;3.88;;;1.95;;
22476;SDS011;65006;51.698;-0.292;2023-09-12T09:14:02;3.45;;;1.50;;
22476;SDS011;65006;51.698;-0.292;2023-09-12T09:16:29;4.95;;;2.28;;
22476;SDS011;65006;51.698;-0.292;2023-09-12T09:18:59;3.38;;;1.95;;
22476;SDS011;65006;51.698;-0.292;2023-09-12T09:21:26;4.40;;;2.08;;
22476;SDS011;65006;51.698;-0.292;2023-09-12T09:23:53;3.75;;;1.88;;
22476;SDS011;65006;51.698;-0.292;2023-09-12T09:26:19;4.15;;;2.20;;
22476;SDS011;65006;51.698;-0.292;2023-09-12T09:28:46;5.30;;;1.83;;
22476;SDS011;65006;51.698;-0.292;2023-09-12T09:31:12;4.35;;;1.85;;
22476;SDS011;65006;51.698;-0.292;2023-09-12T09:33:39;2.63;;;1.75;;
22476;SDS011;65006;51.698;-0.292;2023-09-12T09:36:06;4.13;;;1.98;;
22476;SDS011;65006;51.698;-0.292;2023-09-12T09:40:58;4.80;;;1.98;;
22476;SDS011;65006;51.698;-0.292;2023-09-12T09:43:24;2.92;;;1.60;;
22476;SDS011;65006;51.698;-0.292;2023-09-12T09:45:50;2.72;;;1.55;;
22476;SDS011;65006;51.698;-0.292;2023-09-12T09:48:19;5.03;;;2.25;;
22476;SDS011;65006;51.698;-0.292;2023-09-12T09:50:46;2.92;;;1.73;;
22476;SDS011;65006;51.698;-0.292;2023-09-12T09:53:12;3.20;;;1.75;;
22476;SDS011;65006;51.698;-0.292;2023-09-12T09:55:38;2.53;;;1.40;;
22476;SDS011;65006;51.698;-0.292;2023-09-12T09:58:07;6.15;;;2.10;;
22476;SDS011;65006;51.698;-0.292;2023-09-12T10:00:33;2.92;;;1.05;;
22476;SDS011;65006;51.698;-0.292;2023-09-12T10:05:25;2.88;;;1.13;;
22476;SDS011;65006;51.698;-0.292;2023-09-12T10:07:52;5.50;;;1.52;;
22476;SDS011;65006;51.698;-0.292;2023-09-12T10:10:21;3.78;;;1.42;;
22476;SDS011;65006;51.698;-0.292;2023-09-12T10:12:50;4.70;;;1.48;;
22476;SDS011;65006;51.698;-0.292;2023-09-12T10:15:20;5.43;;;1.05;;
22476;SDS011;65006;51.698;-0.292;2023-09-12T10:17:50;2.05;;;1.33;;
22476;SDS011;65006;51.698;-0.292;2023-09-12T10:20:19;2.03;;;1.20;;
22476;SDS011;65006;51.698;-0.292;2023-09-12T10:22:55;4.32;;;1.23;;
22476;SDS011;65006;51.698;-0.292;2023-09-12T10:25:23;1.98;;;0.88;;
22476;SDS011;65006;51.698;-0.292;2023-09-12T10:27:49;3.35;;;1.25;;
22476;SDS011;65006;51.698;-0.292;2023-09-12T10:30:16;4.03;;;1.02;;
22476;SDS011;65006;51.698;-0.292;2023-09-12T10:32:44;3.53;;;1.08;;
22476;SDS011;65006;51.698;-0.292;2023-09-12T10:35:11;3.17;;;1.10;;
22476;SDS011;65006;51.698;-0.292;2023-09-12T10:37:37;2.70;;;1.00;;
22476;SDS011;65006;51.698;-0.292;2023-09-12T10:40:08;1.55;;;1.00;;
22476;SDS011;65006;51.698;-0.292;2023-09-12T10:42:34;5.85;;;1.15;;
22476;SDS011;65006;51.698;-0.292;2023-09-12T10:47:26;2.38;;;0.73;;
22476;SDS011;65006;51.698;-0.292;2023-09-12T10:49:53;3.72;;;1.00;;
22476;SDS011;65006;51.698;-0.292;2023-09-12T10:52:28;2.90;;;1.23;;
22476;SDS011;65006;51.698;-0.292;2023-09-12T10:54:54;3.05;;;1.23;;
22476;SDS011;65006;51.698;-0.292;2023-09-12T10:57:21;1.35;;;0.75;;
22476;SDS011;65006;51.698;-0.292;2023-09-12T11:02:30;1.90;;;0.93;;
22476;SDS011;65006;51.698;-0.292;2023-09-12T11:04:57;3.05;;;0.90;;
22476;SDS011;65006;51.698;-0.292;2023-09-12T11:07:30;6.28;;;1.00;;
22476;SDS011;65006;51.698;-0.292;2023-09-12T11:12:48;4.45;;;0.95;;
22476;SDS011;65006;51.698;-0.292;2023-09-12T11:15:15;2.10;;;0.90;;
22476;SDS011;65006;51.698;-0.292;2023-09-12T11:17:43;2.20;;;0.95;;
22476;SDS011;65006;51.698;-0.292;2023-09-12T11:20:09;1.65;;;0.80;;
22476;SDS011;65006;51.698;-0.292;2023-09-12T11:22:39;2.65;;;0.80;;
22476;SDS011;65006;51.698;-0.292;2023-09-12T11:25:15;2.85;;;1.17;;
22476;SDS011;65006;51.698;-0.292;2023-09-12T11:28:26;2.08;;;0.80;;
22476;SDS011;65006;51.698;-0.292;2023-09-12T11:30:31;1.15;;;0.63;;
22476;SDS011;65006;51.698;-0.292;2023-09-12T11:32:59;1.15;;;0.60;;
22476;SDS011;65006;51.698;-0.292;2023-09-12T11:35:26;3.55;;;0.82;;
22476;SDS011;65006;51.698;-0.292;2023-09-12T11:37:58;1.75;;;0.95;;
22476;SDS011;65006;51.698;-0.292;2023-09-12T11:43:00;1.05;;;0.70;;
22476;SDS011;65006;51.698;-0.292;2023-09-12T11:45:26;2.33;;;0.80;;
22476;SDS011;65006;51.698;-0.292;2023-09-12T11:47:53;3.78;;;0.68;;
22476;SDS011;65006;51.698;-0.292;2023-09-12T11:52:45;3.72;;;0.50;;
22476;SDS011;65006;51.698;-0.292;2023-09-12T11:55:21;1.85;;;0.57;;
22476;SDS011;65006;51.698;-0.292;2023-09-12T11:57:47;2.03;;;0.75;;
22476;SDS011;65006;51.698;-0.292;2023-09-12T12:00:13;2.65;;;0.63;;
22476;SDS011;65006;51.698;-0.292;2023-09-12T12:02:44;1.42;;;0.90;;
22476;SDS011;65006;51.698;-0.292;2023-09-12T12:05:10;1.48;;;0.52;;
22476;SDS011;65006;51.698;-0.292;2023-09-12T12:07:36;2.28;;;0.57;;
22476;SDS011;65006;51.698;-0.292;2023-09-12T12:10:03;4.13;;;0.70;;
22476;SDS011;65006;51.698;-0.292;2023-09-12T12:12:29;1.63;;;0.63;;
22476;SDS011;65006;51.698;-0.292;2023-09-12T12:14:55;1.88;;;0.50;;
22476;SDS011;65006;51.698;-0.292;2023-09-12T12:17:21;1.83;;;0.70;;
22476;SDS011;65006;51.698;-0.292;2023-09-12T12:19:47;1.45;;;0.70;;
22476;SDS011;65006;51.698;-0.292;2023-09-12T12:22:14;1.83;;;0.70;;
22476;SDS011;65006;51.698;-0.292;2023-09-12T12:24:49;2.80;;;0.70;;
22476;SDS011;65006;51.698;-0.292;2023-09-12T12:27:16;1.58;;;0.70;;
22476;SDS011;65006;51.698;-0.292;2023-09-12T12:29:42;5.03;;;1.10;;
22476;SDS011;65006;51.698;-0.292;2023-09-12T12:32:09;1.83;;;0.73;;
22476;SDS011;65006;51.698;-0.292;2023-09-12T12:34:36;4.50;;;0.85;;
22476;SDS011;65006;51.698;-0.292;2023-09-12T12:37:02;4.70;;;0.93;;
22476;SDS011;65006;51.698;-0.292;2023-09-12T12:39:28;5.13;;;1.00;;
22476;SDS011;65006;51.698;-0.292;2023-09-12T12:41:54;1.67;;;1.00;;
22476;SDS011;65006;51.698;-0.292;2023-09-12T12:44:21;2.50;;;0.90;;
22476;SDS011;65006;51.698;-0.292;2023-09-12T12:46:51;3.28;;;0.98;;
22476;SDS011;65006;51.698;-0.292;2023-09-12T12:49:17;2.53;;;0.85;;
22476;SDS011;65006;51.698;-0.292;2023-09-12T12:54:09;4.05;;;0.80;;
22476;SDS011;65006;51.698;-0.292;2023-09-12T12:56:35;2.13;;;0.70;;
22476;SDS011;65006;51.698;-0.292;2023-09-12T12:59:01;3.08;;;1.00;;
22476;SDS011;65006;51.698;-0.292;2023-09-12T13:01:28;3.22;;;1.05;;
22476;SDS011;65006;51.698;-0.292;2023-09-12T13:03:54;4.03;;;0.90;;
22476;SDS011;65006;51.698;-0.292;2023-09-12T13:06:21;1.58;;;0.90;;
22476;SDS011;65006;51.698;-0.292;2023-09-12T13:08:48;1.95;;;0.60;;
22476;SDS011;65006;51.698;-0.292;2023-09-12T13:11:15;2.80;;;1.00;;
22476;SDS011;65006;51.698;-0.292;2023-09-12T13:13:42;3.33;;;0.70;;
22476;SDS011;65006;51.698;-0.292;2023-09-12T13:16:10;1.20;;;0.75;;
22476;SDS011;65006;51.698;-0.292;2023-09-12T13:18:36;2.53;;;1.15;;
22476;SDS011;65006;51.698;-0.292;2023-09-12T13:23:28;3.03;;;0.93;;
22476;SDS011;65006;51.698;-0.292;2023-09-12T13:25:55;1.83;;;1.10;;
22476;SDS011;65006;51.698;-0.292;2023-09-12T13:28:21;1.10;;;0.52;;
22476;SDS011;65006;51.698;-0.292;2023-09-12T13:30:51;2.58;;;0.60;;
22476;SDS011;65006;51.698;-0.292;2023-09-12T13:33:17;4.93;;;0.90;;
22476;SDS011;65006;51.698;-0.292;2023-09-12T13:35:44;3.83;;;0.70;;
22476;SDS011;65006;51.698;-0.292;2023-09-12T13:38:10;2.38;;;0.75;;
22476;SDS011;65006;51.698;-0.292;2023-09-12T13:40:39;4.13;;;0.75;;
22476;SDS011;65006;51.698;-0.292;2023-09-12T13:43:06;1.90;;;1.00;;
22476;SDS011;65006;51.698;-0.292;2023-09-12T13:45:32;1.55;;;0.80;;
22476;SDS011;65006;51.698;-0.292;2023-09-12T13:47:59;2.70;;;1.20;;
22476;SDS011;65006;51.698;-0.292;2023-09-12T13:50:25;2.42;;;0.80;;
22476;SDS011;65006;51.698;-0.292;2023-09-12T13:52:53;1.42;;;0.88;;
22476;SDS011;65006;51.698;-0.292;2023-09-12T13:55:20;4.13;;;1.05;;
22476;SDS011;65006;51.698;-0.292;2023-09-12T13:57:47;4.40;;;0.82;;
22476;SDS011;65006;51.698;-0.292;2023-09-12T14:00:13;1.25;;;0.90;;
22476;SDS011;65006;51.698;-0.292;2023-09-12T14:02:39;4.78;;;1.17;;
22476;SDS011;65006;51.698;-0.292;2023-09-12T14:05:05;4.15;;;1.00;;
22476;SDS011;65006;51.698;-0.292;2023-09-12T14:07:31;2.30;;;0.70;;
22476;SDS011;65006;51.698;-0.292;2023-09-12T14:09:57;2.38;;;0.65;;
22476;SDS011;65006;51.698;-0.292;2023-09-12T14:12:23;1.38;;;0.70;;
22476;SDS011;65006;51.698;-0.292;2023-09-12T14:14:50;1.58;;;0.70;;
22476;SDS011;65006;51.698;-0.292;2023-09-12T14:17:16;1.33;;;0.95;;
22476;SDS011;65006;51.698;-0.292;2023-09-12T14:19:43;2.53;;;0.60;;
22476;SDS011;65006;51.698;-0.292;2023-09-12T14:22:09;3.17;;;1.20;;
22476;SDS011;65006;51.698;-0.292;2023-09-12T14:24:35;2.90;;;0.90;;
22476;SDS011;65006;51.698;-0.292;2023-09-12T14:27:01;1.88;;;1.05;;
22476;SDS011;65006;51.698;-0.292;2023-09-12T14:29:27;3.70;;;1.20;;
22476;SDS011;65006;51.698;-0.292;2023-09-12T14:31:55;1.63;;;0.80;;
22476;SDS011;65006;51.698;-0.292;2023-09-12T14:34:24;3.58;;;1.23;;
22476;SDS011;65006;51.698;-0.292;2023-09-12T14:36:54;2.50;;;1.02;;
22476;SDS011;65006;51.698;-0.292;2023-09-12T14:39:21;2.40;;;1.17;;
22476;SDS011;65006;51.698;-0.292;2023-09-12T14:41:47;3.58;;;1.02;;
22476;SDS011;65006;51.698;-0.292;2023-09-12T14:44:17;5.70;;;1.02;;
22476;SDS011;65006;51.698;-0.292;2023-09-12T14:49:09;2.20;;;0.95;;
22476;SDS011;65006;51.698;-0.292;2023-09-12T14:51:35;5.88;;;1.23;;
22476;SDS011;65006;51.698;-0.292;2023-09-12T14:54:02;4.28;;;1.80;;
22476;SDS011;65006;51.698;-0.292;2023-09-12T14:58:54;4.05;;;1.33;;
22476;SDS011;65006;51.698;-0.292;2023-09-12T15:01:20;5.00;;;0.90;;
22476;SDS011;65006;51.698;-0.292;2023-09-12T15:03:46;1.58;;;0.82;;
22476;SDS011;65006;51.698;-0.292;2023-09-12T15:06:12;4.35;;;1.20;;
22476;SDS011;65006;51.698;-0.292;2023-09-12T15:08:38;3.53;;;1.10;;
22476;SDS011;65006;51.698;-0.292;2023-09-12T15:11:04;2.42;;;1.15;;
22476;SDS011;65006;51.698;-0.292;2023-09-12T15:15:56;3.92;;;0.93;;